createdAt,value
2018-12-15T00:01:52.656Z,60.40
2018-12-15T00:07:03.828Z,60.39
2018-12-15T00:12:12.457Z,60.21
2018-12-15T00:17:26.519Z,59.95
2018-12-15T00:22:38.672Z,59.39
2018-12-15T00:27:49.799Z,59.63
2018-12-15T00:33:02.015Z,59.90
2018-12-15T00:38:12.903Z,60.87
2018-12-15T00:43:31.853Z,60.56
2018-12-15T00:48:42.747Z,59.96
2018-12-15T00:53:55.046Z,60.99
2018-12-15T00:59:06.143Z,59.76
2018-12-15T01:04:18.525Z,60.12
2018-12-15T01:09:29.408Z,59.84
2018-12-15T01:11:59.508Z,60.32
2018-12-15T01:17:10.687Z,60.15
2018-12-15T01:22:24.468Z,60.02
2018-12-15T01:27:35.641Z,61.30
2018-12-15T01:30:05.318Z,61.57
2018-12-15T01:35:17.380Z,60.96
2018-12-15T01:40:28.330Z,61.68
2018-12-15T01:45:40.928Z,62.53
2018-12-15T01:50:51.921Z,61.64
2018-12-15T01:56:03.076Z,61.75
2018-12-15T01:58:32.416Z,61.49
2018-12-15T02:03:41.732Z,62.20
2018-12-15T02:08:52.940Z,62.55
2018-12-15T02:14:05.373Z,62.97
2018-12-15T02:19:16.465Z,62.66
2018-12-15T02:24:30.527Z,62.73
2018-12-15T02:29:38.091Z,62.37
2018-12-15T02:34:51.573Z,62.88
2018-12-15T02:40:06.892Z,61.94
2018-12-15T02:45:15.372Z,62.67
2018-12-15T02:50:26.759Z,61.87
2018-12-15T02:55:38.796Z,62.50
2018-12-15T03:00:49.908Z,62.32
2018-12-15T03:05:57.510Z,62.58
2018-12-15T03:11:09.753Z,62.26
2018-12-15T03:16:20.935Z,61.62
2018-12-15T03:21:33.898Z,63.16
2018-12-15T03:26:45.132Z,62.85
2018-12-15T03:31:59.297Z,63.30
2018-12-15T03:37:10.283Z,61.47
2018-12-15T03:42:23.027Z,60.52
2018-12-15T03:47:35.186Z,61.07
2018-12-15T03:52:48.067Z,60.43
2018-12-15T03:59:02.534Z,61.12
2018-12-15T04:04:14.457Z,60.83
2018-12-15T04:09:25.431Z,60.27
2018-12-15T04:14:38.198Z,61.30
2018-12-15T04:19:49.807Z,61.23
2018-12-15T04:25:04.244Z,61.23
2018-12-15T04:30:15.902Z,62.10
2018-12-15T04:35:24.615Z,61.34
2018-12-15T04:40:35.926Z,61.20
2018-12-15T04:43:06.212Z,61.45
2018-12-15T04:48:17.294Z,61.53
2018-12-15T04:53:29.398Z,61.88
2018-12-15T04:58:36.980Z,61.79
2018-12-15T05:03:49.233Z,61.36
2018-12-15T05:09:00.517Z,63.11
2018-12-15T05:14:12.512Z,61.76
2018-12-15T05:19:23.413Z,60.97
2018-12-15T05:24:35.782Z,62.25
2018-12-15T05:29:46.845Z,61.45
2018-12-15T05:35:01.604Z,61.64
2018-12-15T05:40:13.561Z,61.73
2018-12-15T05:45:25.861Z,62.45
2018-12-15T05:50:36.940Z,61.98
2018-12-15T05:55:48.932Z,63.45
2018-12-15T06:00:59.940Z,62.17
2018-12-15T06:06:11.029Z,62.80
2018-12-15T06:11:23.032Z,62.61
2018-12-15T06:16:34.411Z,62.66
2018-12-15T06:21:47.135Z,62.09
2018-12-15T06:26:58.229Z,62.04
2018-12-15T06:32:10.231Z,62.62
2018-12-15T06:37:21.136Z,63.76
2018-12-15T06:42:33.324Z,62.77
2018-12-15T06:47:44.626Z,62.38
2018-12-15T06:52:56.696Z,63.51
2018-12-15T06:58:07.686Z,62.86
2018-12-15T07:00:37.262Z,62.57
2018-12-15T07:05:49.343Z,63.07
2018-12-15T07:11:00.279Z,64.55
2018-12-15T07:16:11.267Z,62.68
2018-12-15T07:21:23.275Z,62.42
2018-12-15T07:26:35.477Z,62.60
2018-12-15T07:31:50.923Z,63.26
2018-12-15T07:37:04.050Z,62.74
2018-12-15T07:42:12.543Z,62.32
2018-12-15T07:47:23.659Z,62.56
2018-12-15T07:52:35.695Z,62.35
2018-12-15T07:57:47.603Z,64.49
2018-12-15T08:00:17.110Z,63.08
2018-12-15T08:02:46.463Z,62.63
2018-12-15T08:07:58.020Z,63.31
2018-12-15T08:13:28.750Z,63.28
2018-12-15T08:18:40.725Z,63.83
2018-12-15T08:23:52.910Z,63.06
2018-12-15T08:29:04.553Z,63.01
2018-12-15T08:34:16.553Z,64.34
2018-12-15T08:39:27.732Z,64.08
2018-12-15T08:44:39.721Z,64.74
2018-12-15T08:49:50.857Z,65.74
2018-12-15T08:52:20.332Z,64.33
2018-12-15T08:57:33.852Z,64.33
2018-12-15T09:02:46.041Z,64.58
2018-12-15T09:07:56.983Z,64.77
2018-12-15T09:13:09.201Z,64.96
2018-12-15T09:18:20.204Z,65.42
2018-12-15T09:23:32.757Z,64.64
2018-12-15T09:28:43.720Z,65.48
2018-12-15T09:33:55.876Z,64.92
2018-12-15T09:39:08.399Z,65.06
2018-12-15T09:44:21.628Z,65.14
2018-12-15T09:49:32.616Z,66.30
2018-12-15T09:52:02.024Z,66.91
2018-12-15T09:57:13.854Z,65.51
2018-12-15T10:02:27.905Z,66.90
2018-12-15T10:07:39.359Z,65.53
2018-12-15T10:12:48.411Z,65.41
2018-12-15T10:17:59.349Z,65.86
2018-12-15T10:23:13.465Z,65.32
2018-12-15T10:28:25.718Z,65.85
2018-12-15T10:33:52.082Z,67.79
2018-12-15T10:39:03.166Z,65.04
2018-12-15T10:44:15.477Z,66.89
2018-12-15T10:49:30.637Z,65.46
2018-12-15T10:54:37.583Z,65.18
2018-12-15T10:59:50.737Z,65.24
2018-12-15T11:05:02.994Z,64.95
2018-12-15T11:10:15.305Z,65.30
2018-12-15T11:12:44.755Z,65.06
2018-12-15T11:17:55.854Z,65.20
2018-12-15T11:23:09.922Z,65.01
2018-12-15T11:28:17.593Z,65.91
2018-12-15T11:30:46.956Z,65.31
2018-12-15T11:33:16.476Z,65.66
2018-12-15T11:38:30.389Z,65.59
2018-12-15T11:43:42.270Z,65.42
2018-12-15T11:48:53.540Z,65.83
2018-12-15T11:54:05.588Z,65.96
2018-12-15T11:59:16.881Z,65.90
2018-12-15T12:04:30.824Z,64.90
2018-12-15T12:09:42.162Z,65.53
2018-12-15T12:12:11.751Z,67.34
2018-12-15T12:17:23.117Z,65.56
2018-12-15T12:22:35.906Z,64.36
2018-12-15T12:27:47.277Z,64.47
2018-12-15T12:32:59.813Z,64.91
2018-12-15T12:38:10.661Z,65.59
2018-12-15T12:43:26.030Z,64.18
2018-12-15T12:48:37.045Z,65.05
2018-12-15T12:51:06.654Z,64.08
2018-12-15T12:56:18.163Z,64.66
2018-12-15T13:01:30.334Z,64.46
2018-12-15T13:06:41.548Z,64.58
2018-12-15T13:11:54.148Z,64.22
2018-12-15T13:17:05.321Z,64.13
2018-12-15T13:22:17.868Z,64.06
2018-12-15T13:27:31.113Z,63.49
2018-12-15T13:32:39.958Z,63.33
2018-12-15T13:37:53.361Z,64.69
2018-12-15T13:43:08.690Z,63.17
2018-12-15T13:48:21.201Z,63.79
2018-12-15T13:53:36.167Z,63.63
2018-12-15T13:58:47.520Z,63.41
2018-12-15T14:03:59.725Z,63.37
2018-12-15T14:09:12.786Z,63.57
2018-12-15T14:14:25.175Z,63.11
2018-12-15T14:19:32.991Z,64.38
2018-12-15T14:24:45.021Z,63.08
2018-12-15T14:29:56.183Z,63.74
2018-12-15T14:35:08.854Z,64.81
2018-12-15T14:40:19.933Z,63.75
2018-12-15T14:45:32.135Z,64.28
2018-12-15T14:50:45.432Z,64.42
2018-12-15T14:55:57.602Z,63.87
2018-12-15T15:01:06.358Z,64.80
2018-12-15T15:06:18.215Z,64.38
2018-12-15T15:08:47.613Z,65.21
2018-12-15T15:13:59.568Z,65.16
2018-12-15T15:19:10.576Z,65.83
2018-12-15T15:24:22.874Z,65.89
2018-12-15T15:29:34.097Z,67.24
2018-12-15T15:34:46.082Z,65.84
2018-12-15T15:39:58.151Z,65.77
2018-12-15T15:45:10.423Z,66.67
2018-12-15T15:50:21.733Z,66.61
2018-12-15T15:55:33.874Z,66.88
2018-12-15T16:00:45.910Z,66.85
2018-12-15T16:06:02.183Z,67.49
2018-12-15T16:11:14.301Z,68.08
2018-12-15T16:16:36.445Z,67.60
2018-12-15T16:21:53.103Z,67.52
2018-12-15T16:27:05.611Z,67.68
2018-12-15T16:29:35.260Z,67.27
2018-12-15T16:34:47.373Z,66.80
2018-12-15T16:39:55.850Z,67.32
2018-12-15T16:45:11.165Z,66.87
2018-12-15T16:50:22.517Z,68.45
2018-12-15T16:55:34.858Z,67.35
2018-12-15T17:00:46.134Z,67.44
2018-12-15T17:05:58.165Z,67.74
2018-12-15T17:11:10.708Z,68.40
2018-12-15T17:16:22.639Z,68.01
2018-12-15T17:21:34.997Z,68.14
2018-12-15T17:26:49.344Z,68.12
2018-12-15T17:32:01.614Z,68.74
2018-12-15T17:37:15.583Z,69.63
2018-12-15T17:42:28.016Z,69.32
2018-12-15T17:47:38.966Z,69.19
2018-12-15T17:52:49.631Z,69.71
2018-12-15T17:58:00.548Z,69.54
2018-12-15T18:03:13.658Z,69.04
2018-12-15T18:08:24.589Z,69.36
2018-12-15T18:13:33.745Z,70.12
2018-12-15T18:18:46.714Z,69.22
2018-12-15T18:23:58.904Z,69.96
2018-12-15T18:29:10.000Z,70.02
2018-12-15T18:31:39.420Z,69.40
2018-12-15T18:36:50.916Z,71.11
2018-12-15T18:42:03.073Z,69.75
2018-12-15T18:47:14.222Z,70.51
2018-12-15T18:52:26.312Z,69.81
2018-12-15T18:57:34.513Z,71.06
2018-12-15T19:02:47.933Z,70.48
2018-12-15T19:08:01.649Z,70.24
2018-12-15T19:13:12.796Z,70.09
2018-12-15T19:18:25.960Z,71.22
2018-12-15T19:23:38.028Z,70.60
2018-12-15T19:28:49.132Z,70.70
2018-12-15T19:34:03.140Z,70.67
2018-12-15T19:39:14.407Z,70.61
2018-12-15T19:44:26.772Z,71.00
2018-12-15T19:49:38.808Z,70.81
2018-12-15T19:54:50.825Z,71.04
2018-12-15T19:59:59.114Z,70.83
2018-12-15T20:05:13.330Z,71.48
2018-12-15T20:10:24.675Z,71.32
2018-12-15T20:15:36.706Z,71.11
2018-12-15T20:20:50.158Z,71.88
2018-12-15T20:26:02.279Z,71.01
2018-12-15T20:31:14.950Z,71.73
2018-12-15T20:36:26.382Z,70.78
2018-12-15T20:41:41.466Z,70.48
2018-12-15T20:46:52.499Z,71.11
2018-12-15T20:52:06.738Z,70.46
2018-12-15T20:57:19.106Z,70.92
2018-12-15T21:02:34.334Z,70.91
2018-12-15T21:07:46.168Z,71.02
2018-12-15T21:10:16.147Z,70.72
2018-12-15T21:15:31.729Z,69.89
2018-12-15T21:20:43.017Z,69.94
2018-12-15T21:25:55.861Z,70.00
2018-12-15T21:31:06.958Z,69.79
2018-12-15T21:36:18.507Z,69.76
2018-12-15T21:41:30.843Z,70.07
2018-12-15T21:46:43.909Z,69.43
2018-12-15T21:51:56.440Z,69.25
2018-12-15T21:57:11.033Z,69.27
2018-12-15T22:02:23.565Z,69.05
2018-12-15T22:07:35.082Z,69.15
2018-12-15T22:12:48.220Z,68.37
2018-12-15T22:17:55.662Z,68.48
2018-12-15T22:23:08.055Z,68.20
2018-12-15T22:28:19.661Z,68.78
2018-12-15T22:33:31.879Z,68.69
2018-12-15T22:38:42.867Z,67.80
2018-12-15T22:43:55.097Z,68.41
2018-12-15T22:49:06.296Z,68.23
2018-12-15T22:54:17.174Z,68.27
2018-12-15T22:59:28.049Z,67.18
2018-12-15T23:04:40.608Z,67.98
2018-12-15T23:09:51.588Z,67.43
2018-12-15T23:15:04.642Z,67.48
2018-12-15T23:20:15.653Z,67.54
2018-12-15T23:25:27.763Z,67.29
2018-12-15T23:30:38.834Z,67.19
2018-12-15T23:35:51.375Z,67.98
2018-12-15T23:41:02.399Z,67.39
2018-12-15T23:46:13.618Z,66.87
2018-12-15T23:51:25.773Z,67.17
2018-12-15T23:56:36.855Z,67.18
